Time;durP1;ratioP1;P1;durP2;ratioP2;P2;SDS_P1;SDS_P2;PMS_P1;PMS_P2;Temp;Humidity;BMP_temperature;BMP_pressure;BME280_temperature;BME280_humidity;BME280_pressure;Samples;Min_cycle;Max_cycle;Signal;HPM_P1;HPM_P2
2022/01/27 00:01:04;;;;;;;14.98;7.75;;;;;;;18.08;25.47;98719.88;5076675;28;20039;-80
2022/01/27 00:03:36;;;;;;;13.85;7.53;;;;;;;18.77;24.16;98715.47;5076161;28;20488;-80
2022/01/27 00:06:10;;;;;;;12.13;6.68;;;;;;;18.97;24.09;98722.44;5076394;28;20365;-80
2022/01/27 00:08:45;;;;;;;10.65;5.95;;;;;;;18.83;24.37;98721.50;5076021;28;20430;-80
2022/01/27 00:11:14;;;;;;;12.95;5.75;;;;;;;17.58;25.71;98712.03;5076765;28;20399;-80
2022/01/27 00:13:53;;;;;;;8.98;5.95;;;;;;;18.50;24.57;98709.28;5067278;28;20057;-80
2022/01/27 00:16:23;;;;;;;12.05;6.65;;;;;;;18.48;24.88;98714.38;5056250;28;20033;-80
2022/01/27 00:18:50;;;;;;;11.23;5.55;;;;;;;18.24;24.84;98714.09;5066552;28;20131;-80
2022/01/27 00:21:23;;;;;;;11.98;6.43;;;;;;;18.42;24.87;98723.44;5055881;28;20053;-80
2022/01/27 00:23:49;;;;;;;12.38;6.43;;;;;;;18.31;24.97;98726.09;5055664;28;20025;-80
2022/01/27 00:26:17;;;;;;;6.75;4.47;;;;;;;17.63;25.68;98733.94;5056066;28;20392;-80
2022/01/27 00:28:44;;;;;;;10.70;6.38;;;;;;;17.24;26.29;98736.09;5055621;28;20064;-80
2022/01/27 00:31:10;;;;;;;9.70;5.22;;;;;;;17.43;26.26;98743.53;5062956;28;20498;-80
2022/01/27 00:33:36;;;;;;;9.18;5.13;;;;;;;18.35;25.13;98749.16;5075700;28;20476;-80
2022/01/27 00:36:04;;;;;;;11.68;6.18;;;;;;;18.33;24.74;98751.53;5055610;28;20033;-80
2022/01/27 00:38:31;;;;;;;8.77;5.40;;;;;;;17.85;25.55;98756.06;5055404;28;20389;-80
2022/01/27 00:40:57;;;;;;;7.47;4.80;;;;;;;18.14;25.09;98748.91;5055763;28;20054;-80
2022/01/27 00:43:24;;;;;;;11.32;5.82;;;;;;;18.15;24.78;98755.28;5055483;28;20036;-80
2022/01/27 00:45:50;;;;;;;9.30;5.00;;;;;;;17.43;26.02;98746.31;5055944;28;20029;-80
2022/01/27 00:48:17;;;;;;;10.52;4.95;;;;;;;17.09;26.79;98753.66;5055944;28;20120;-80
2022/01/27 00:50:54;;;;;;;9.25;5.20;;;;;;;17.24;26.41;98755.53;5054601;28;20017;-80
2022/01/27 00:53:30;;;;;;;10.80;5.35;;;;;;;17.40;26.12;98755.38;5055508;28;20029;-80
2022/01/27 00:56:01;;;;;;;8.00;5.47;;;;;;;17.62;25.86;98747.00;5055657;28;20029;-80
2022/01/27 00:58:46;;;;;;;8.10;4.85;;;;;;;17.88;25.37;98749.75;5055589;28;20119;-79
2022/01/27 01:01:16;;;;;;;8.88;5.38;;;;;;;17.86;25.08;98749.34;5055429;28;20108;-80
2022/01/27 01:03:46;;;;;;;8.98;5.40;;;;;;;17.72;25.62;98753.91;5055284;28;20373;-80
2022/01/27 01:14:47;;;;;;;7.18;5.03;;;;;;;17.57;25.47;98735.44;5075215;28;20044;-80
2022/01/27 01:17:30;;;;;;;7.82;5.28;;;;;;;17.37;25.60;98734.72;5075162;28;20032;-80
2022/01/27 01:20:21;;;;;;;7.53;4.70;;;;;;;19.09;23.27;98738.03;5075104;28;20037;-80
2022/01/27 01:34:00;;;;;;;7.68;5.05;;;;;;;19.65;22.73;98740.50;5054151;28;20098;-80
2022/01/27 01:36:36;;;;;;;8.23;5.13;;;;;;;18.71;23.59;98735.69;5054399;28;20116;-80
2022/01/27 01:39:04;;;;;;;9.55;5.70;;;;;;;19.15;23.12;98736.50;5063790;28;20544;-80
2022/01/27 01:41:30;;;;;;;7.50;4.75;;;;;;;19.29;22.99;98731.03;5069118;28;20035;-80
2022/01/27 01:43:56;;;;;;;6.93;4.47;;;;;;;19.58;22.54;98727.28;5074817;28;20036;-80
2022/01/27 01:46:22;;;;;;;6.72;4.32;;;;;;;19.39;22.83;98732.34;5074287;28;20090;-80
2022/01/27 01:48:49;;;;;;;9.68;5.03;;;;;;;18.55;24.03;98733.94;5073880;28;20041;-80
2022/01/27 01:51:23;;;;;;;7.22;5.00;;;;;;;18.32;23.97;98736.03;5074184;28;20078;-80
2022/01/27 01:53:49;;;;;;;8.52;5.50;;;;;;;18.57;23.73;98725.22;5074165;28;20107;-80
2022/01/27 01:56:16;;;;;;;9.25;5.13;;;;;;;18.41;24.04;98727.41;5070008;28;20029;-80
2022/01/27 01:58:42;;;;;;;7.60;5.13;;;;;;;18.22;24.24;98730.34;5054086;28;20036;-80
2022/01/27 02:01:08;;;;;;;8.00;5.05;;;;;;;18.40;24.31;98731.34;5056790;28;20028;-80
2022/01/27 02:03:34;;;;;;;8.93;5.70;;;;;;;19.11;23.58;98722.53;5054009;28;20041;-80
2022/01/27 02:06:00;;;;;;;8.45;5.25;;;;;;;18.27;24.18;98725.28;5052414;28;20032;-80
2022/01/27 02:08:42;;;;;;;8.23;4.95;;;;;;;19.19;23.37;98709.47;5053623;28;20035;-80
2022/01/27 02:19:42;;;;;;;8.43;5.07;;;;;;;20.50;21.35;98719.38;5031397;28;20049;-80
2022/01/27 02:22:08;;;;;;;8.00;5.13;;;;;;;21.01;21.03;98716.28;5048917;28;20048;-80
2022/01/27 02:24:36;;;;;;;8.07;5.30;;;;;;;20.76;21.26;98716.25;5053317;28;20040;-80
2022/01/27 02:27:03;;;;;;;8.07;5.40;;;;;;;19.54;22.56;98720.91;5053498;28;20059;-80
2022/01/27 02:29:30;;;;;;;9.98;5.70;;;;;;;19.19;23.29;98713.06;5053531;28;20033;-80
2022/01/27 02:31:58;;;;;;;14.18;7.22;;;;;;;18.96;23.50;98723.63;5061568;28;20028;-80
2022/01/27 02:34:24;;;;;;;11.57;6.32;;;;;;;18.82;23.84;98719.91;5073392;28;20037;-80
2022/01/27 02:36:51;;;;;;;11.18;6.70;;;;;;;19.49;22.74;98700.97;5073563;28;20028;-80
2022/01/27 02:39:18;;;;;;;13.13;7.72;;;;;;;20.19;21.88;98703.31;5073397;28;20032;-80
2022/01/27 02:42:15;;;;;;;11.65;6.15;;;;;;;20.23;22.09;98693.81;5073199;28;20041;-80
2022/01/27 02:44:54;;;;;;;12.18;7.07;;;;;;;20.49;21.45;98685.09;5073427;28;20024;-80
2022/01/27 02:47:21;;;;;;;12.88;7.82;;;;;;;20.86;20.95;98676.41;5068204;28;20544;-80
2022/01/27 02:49:48;;;;;;;11.52;5.85;;;;;;;21.21;20.66;98679.19;5053160;28;20401;-80
2022/01/27 02:52:15;;;;;;;13.27;6.80;;;;;;;21.10;20.58;98674.81;5053273;28;20040;-80
2022/01/27 02:54:41;;;;;;;8.38;6.05;;;;;;;19.92;21.81;98678.53;5052639;28;20488;-80
2022/01/27 02:57:08;;;;;;;10.05;6.38;;;;;;;20.17;21.54;98675.84;5063919;28;20036;-80
2022/01/27 02:59:34;;;;;;;8.70;5.45;;;;;;;20.50;21.34;98683.13;5053184;28;20041;-80
2022/01/27 03:02:00;;;;;;;9.18;5.68;;;;;;;20.66;21.06;98672.38;5053129;28;20025;-80
2022/01/27 03:04:26;;;;;;;8.07;4.93;;;;;;;20.73;20.88;98677.97;5053632;28;20082;-80
2022/01/27 03:06:53;;;;;;;7.60;5.25;;;;;;;20.30;21.28;98677.13;5051807;28;20428;-80
2022/01/27 03:09:19;;;;;;;9.60;5.63;;;;;;;20.24;21.52;98686.22;5052892;28;20033;-80
2022/01/27 03:12:13;;;;;;;9.48;5.47;;;;;;;20.36;21.39;98689.47;5051713;28;20036;-80
2022/01/27 03:14:41;;;;;;;10.43;5.43;;;;;;;18.39;23.55;98688.84;5051134;28;20048;-80
2022/01/27 03:17:08;;;;;;;8.88;5.72;;;;;;;19.48;22.35;98689.06;5056847;28;20037;-80
2022/01/27 03:19:36;;;;;;;9.25;5.93;;;;;;;20.29;21.24;98675.50;5066187;28;20098;-80
2022/01/27 03:22:03;;;;;;;7.53;4.53;;;;;;;20.02;21.69;98670.63;5069621;28;20033;-80
2022/01/27 03:24:30;;;;;;;9.18;4.97;;;;;;;20.36;21.07;98672.75;5076955;28;20037;-80
2022/01/27 03:26:57;;;;;;;8.27;5.22;;;;;;;20.35;21.31;98673.91;5077046;28;20369;-80
2022/01/27 03:29:24;;;;;;;6.63;4.40;;;;;;;19.97;21.68;98661.44;5076834;28;20060;-80
2022/01/27 03:31:50;;;;;;;9.32;5.47;;;;;;;19.87;21.82;98661.38;5059841;28;20388;-80
2022/01/27 03:34:16;;;;;;;12.10;4.90;;;;;;;20.12;21.37;98659.47;5056825;28;20112;-80
2022/01/27 03:36:43;;;;;;;8.20;5.60;;;;;;;19.60;22.13;98655.31;5056694;28;20108;-80
2022/01/27 03:39:10;;;;;;;8.63;5.25;;;;;;;20.16;21.81;98657.53;5057524;28;20040;-80
2022/01/27 03:41:38;;;;;;;6.50;4.30;;;;;;;20.79;20.94;98642.91;5056722;28;20122;-80
2022/01/27 03:44:05;;;;;;;9.13;5.28;;;;;;;19.86;21.55;98637.50;5056848;28;20091;-80
2022/01/27 03:46:31;;;;;;;7.10;4.72;;;;;;;19.37;22.47;98640.81;5056623;28;20032;-80
2022/01/27 03:48:58;;;;;;;10.73;5.32;;;;;;;19.17;22.47;98631.94;5057163;28;20037;-80
2022/01/27 03:51:24;;;;;;;7.80;4.65;;;;;;;20.01;21.82;98628.00;5072840;28;20037;-80
2022/01/27 03:53:50;;;;;;;6.60;4.20;;;;;;;20.57;21.08;98622.56;5075183;28;20086;-80
2022/01/27 03:56:16;;;;;;;6.80;4.88;;;;;;;20.99;20.34;98607.81;5075527;28;20450;-80
2022/01/27 03:58:42;;;;;;;8.10;4.25;;;;;;;21.35;19.98;98612.16;5076349;28;20032;-80
2022/01/27 04:01:08;;;;;;;5.18;3.65;;;;;;;20.85;20.28;98610.59;5075896;28;20407;-80
2022/01/27 04:03:37;;;;;;;5.07;3.03;;;;;;;21.21;20.11;98614.97;5076506;28;20098;-80
2022/01/27 04:06:09;;;;;;;6.65;4.10;;;;;;;21.33;19.78;98610.97;5076459;28;20025;-80
2022/01/27 04:08:37;;;;;;;6.35;3.78;;;;;;;21.15;19.99;98616.59;5071644;28;20056;-80
2022/01/27 04:11:08;;;;;;;6.97;4.30;;;;;;;21.33;19.97;98603.38;5056349;28;20104;-80
2022/01/27 04:13:35;;;;;;;;;;;;;;;21.75;19.43;98598.88;5056944;28;20029;-79
2022/01/27 04:16:02;;;;;;;5.07;3.55;;;;;;;21.48;19.58;98598.56;5055952;28;19959;-80
2022/01/27 04:18:28;;;;;;;7.45;4.28;;;;;;;21.12;19.87;98609.00;5055852;28;20033;-80
2022/01/27 04:20:54;;;;;;;13.02;6.68;;;;;;;20.83;20.21;98610.22;5056253;28;20049;-80
2022/01/27 04:23:20;;;;;;;8.07;4.93;;;;;;;21.42;19.71;98607.75;5055950;28;20029;-80
2022/01/27 04:25:47;;;;;;;7.05;4.18;;;;;;;20.85;20.17;98610.59;5054473;28;20076;-80
2022/01/27 04:28:19;;;;;;;7.47;5.00;;;;;;;19.67;21.45;98612.75;5056051;28;20116;-80
2022/01/27 04:30:47;;;;;;;6.05;3.50;;;;;;;19.53;21.73;98607.13;5072802;28;20492;-80
2022/01/27 04:33:13;;;;;;;7.07;3.85;;;;;;;19.26;21.74;98614.88;5075696;28;20024;-80
2022/01/27 04:35:45;;;;;;;6.57;4.13;;;;;;;18.90;22.58;98616.66;5075955;28;20036;-80
2022/01/27 04:45:47;;;;;;;4.88;3.15;;;;;;;21.78;19.20;98586.84;5057527;28;20112;-80
2022/01/27 04:48:16;;;;;;;6.70;3.28;;;;;;;21.75;19.15;98577.28;5055437;28;20063;-80
2022/01/27 04:50:43;;;;;;;4.28;2.83;;;;;;;21.32;19.52;98578.66;5055300;28;20036;-80
2022/01/27 04:53:16;;;;;;;4.20;2.67;;;;;;;22.08;18.98;98577.97;5054079;28;20029;-80
2022/01/27 04:55:42;;;;;;;5.32;3.50;;;;;;;21.93;18.96;98583.63;5055538;28;20033;-80
2022/01/27 04:58:16;;;;;;;5.45;3.00;;;;;;;22.01;18.75;98581.56;5055481;28;20029;-80
2022/01/27 05:00:43;;;;;;;4.75;3.38;;;;;;;21.00;19.86;98594.66;5055119;28;20471;-80
2022/01/27 05:03:21;;;;;;;5.38;3.30;;;;;;;20.98;19.79;98585.88;5055673;28;20029;-80
2022/01/27 05:05:47;;;;;;;7.25;4.07;;;;;;;21.38;19.38;98584.63;5055019;28;20382;-79
2022/01/27 05:08:19;;;;;;;8.73;5.32;;;;;;;20.70;20.24;98595.06;5056577;28;20404;-80
2022/01/27 05:10:59;;;;;;;5.07;4.20;;;;;;;20.87;20.03;98585.88;5075299;28;20043;-79
2022/01/27 05:13:28;;;;;;;11.90;6.55;;;;;;;20.56;20.12;98587.47;5074659;28;20021;-80
2022/01/27 05:15:54;;;;;;;11.38;5.68;;;;;;;20.91;19.90;98583.88;5074908;28;20028;-80
2022/01/27 05:18:21;;;;;;;7.05;4.40;;;;;;;21.02;19.76;98584.69;5075009;28;20090;-80
2022/01/27 05:20:48;;;;;;;10.13;4.07;;;;;;;21.61;19.31;98582.94;5073858;28;20443;-80
2022/01/27 05:23:14;;;;;;;9.77;4.78;;;;;;;21.06;19.82;98585.50;5075068;28;20033;-80
2022/01/27 05:25:41;;;;;;;5.20;3.35;;;;;;;21.25;19.48;98578.69;5074659;28;20051;-80
2022/01/27 05:28:08;;;;;;;4.50;2.85;;;;;;;21.17;19.60;98589.06;5067581;28;20509;-79
2022/01/27 05:30:35;;;;;;;4.82;2.67;;;;;;;21.43;19.48;98598.97;5054527;28;20044;-80
2022/01/27 05:33:01;;;;;;;4.30;2.50;;;;;;;21.61;19.28;98593.34;5054515;28;20040;-79
2022/01/27 05:35:27;;;;;;;4.78;2.78;;;;;;;22.01;18.88;98596.34;5054480;28;20033;-80
2022/01/27 05:37:53;;;;;;;5.20;2.88;;;;;;;21.81;19.04;98592.44;5057465;28;20468;-79
2022/01/27 05:40:19;;;;;;;5.78;3.00;;;;;;;22.02;18.81;98586.78;5054310;28;20426;-79
2022/01/27 05:42:45;;;;;;;7.75;4.28;;;;;;;22.33;18.54;98585.00;5054318;28;20040;-79
2022/01/27 05:45:12;;;;;;;6.93;3.78;;;;;;;22.50;18.33;98584.03;5054414;28;20388;-80
2022/01/27 05:47:38;;;;;;;8.65;4.55;;;;;;;22.86;17.85;98590.19;5054481;28;20044;-80
2022/01/27 05:50:05;;;;;;;6.18;3.47;;;;;;;22.46;18.09;98590.88;5054467;28;20542;-80
2022/01/27 05:52:32;;;;;;;4.40;3.13;;;;;;;22.38;18.31;98587.31;5054452;28;20029;-79
2022/01/27 05:54:58;;;;;;;4.97;3.03;;;;;;;23.01;18.13;98568.47;5054633;28;20103;-80
2022/01/27 05:57:24;;;;;;;6.20;3.22;;;;;;;23.54;17.62;98570.69;5053943;28;20052;-77
2022/01/27 05:59:50;;;;;;;6.75;3.47;;;;;;;23.91;17.06;98571.41;5053960;28;20032;-79
2022/01/27 06:02:16;;;;;;;5.78;3.47;;;;;;;24.23;17.00;98565.38;5054005;28;20078;-80
2022/01/27 06:04:42;;;;;;;7.13;3.95;;;;;;;24.51;16.65;98569.75;5054211;28;20053;-79
2022/01/27 06:07:08;;;;;;;10.52;4.68;;;;;;;24.68;16.39;98557.44;5053871;28;20032;-79
2022/01/27 06:09:35;;;;;;;44.90;17.75;;;;;;;24.76;16.23;98560.94;5049197;28;20405;-79
2022/01/27 06:12:01;;;;;;;39.40;13.98;;;;;;;24.77;16.12;98562.53;5071143;28;20594;-80
2022/01/27 06:14:27;;;;;;;12.02;4.72;;;;;;;24.41;16.55;98548.28;5073828;28;20438;-80
2022/01/27 06:16:53;;;;;;;9.32;4.45;;;;;;;24.16;16.52;98553.47;5073470;28;20033;-79
2022/01/27 06:19:19;;;;;;;8.75;4.05;;;;;;;23.70;16.83;98538.06;5073551;28;20065;-79
2022/01/27 06:21:45;;;;;;;7.35;3.72;;;;;;;23.26;17.17;98533.38;5060761;28;20040;-80
2022/01/27 06:24:11;;;;;;;6.90;3.88;;;;;;;23.47;17.59;98539.94;5073730;28;20533;-79
2022/01/27 06:26:37;;;;;;;20.13;9.00;;;;;;;23.67;17.31;98536.09;5068124;28;20100;-79
2022/01/27 06:29:04;;;;;;;19.02;7.85;;;;;;;23.57;17.01;98527.81;5053906;28;20055;-79
2022/01/27 06:31:30;;;;;;;35.08;14.15;;;;;;;23.72;17.09;98530.00;5054050;28;20032;-80
2022/01/27 06:33:56;;;;;;;27.67;8.60;;;;;;;24.02;16.79;98515.97;5053365;28;20033;-79
2022/01/27 06:36:22;;;;;;;14.55;6.57;;;;;;;24.34;16.53;98503.50;5054073;28;20400;-79
2022/01/27 06:38:48;;;;;;;10.80;4.40;;;;;;;24.30;16.45;98502.72;5053382;28;20075;-80
2022/01/27 06:41:14;;;;;;;11.27;5.30;;;;;;;23.97;16.97;98513.63;5051965;28;20041;-80
2022/01/27 06:43:40;;;;;;;12.70;5.32;;;;;;;23.95;16.75;98507.66;5053627;28;20117;-80
2022/01/27 06:46:06;;;;;;;20.10;8.20;;;;;;;23.58;17.12;98499.38;5054159;28;20079;-79
2022/01/27 06:48:33;;;;;;;43.85;18.85;;;;;;;23.04;17.35;98495.59;5052631;28;20123;-80
2022/01/27 06:51:01;;;;;;;23.58;9.75;;;;;;;23.05;17.51;98516.78;5053264;28;20017;-80
2022/01/27 06:53:27;;;;;;;9.77;5.22;;;;;;;22.97;17.82;98520.06;5053456;28;20033;-80
2022/01/27 06:55:54;;;;;;;6.63;4.03;;;;;;;23.16;17.56;98497.84;5085449;28;20080;-80
2022/01/27 06:58:20;;;;;;;14.30;4.82;;;;;;;23.33;17.38;98488.47;5053420;28;20029;-80
2022/01/27 07:00:47;;;;;;;10.27;4.68;;;;;;;23.62;17.13;98472.06;5053401;28;20393;-80
2022/01/27 07:03:13;;;;;;;9.20;4.13;;;;;;;23.30;17.37;98466.06;5053662;28;20029;-80
2022/01/27 07:05:41;;;;;;;10.13;4.45;;;;;;;22.90;17.22;98469.75;5053054;28;20033;-80
2022/01/27 07:08:07;;;;;;;7.25;3.80;;;;;;;23.24;17.42;98476.94;5053323;28;20025;-80
2022/01/27 07:10:33;;;;;;;15.07;8.07;;;;;;;22.95;17.53;98475.69;5052863;28;20040;-80
2022/01/27 07:12:59;;;;;;;15.25;7.45;;;;;;;23.06;17.61;98476.34;5053007;28;20029;-80
2022/01/27 07:15:28;;;;;;;18.60;9.80;;;;;;;23.25;17.51;98467.31;5053052;28;20041;-80
2022/01/27 07:17:54;;;;;;;17.33;6.82;;;;;;;23.57;17.18;98458.53;5053004;28;20029;-80
2022/01/27 07:20:20;;;;;;;11.27;5.88;;;;;;;23.33;17.51;98454.03;5053763;28;20045;-80
2022/01/27 07:22:46;;;;;;;9.68;5.03;;;;;;;23.11;17.87;98456.28;5053280;28;20086;-80
2022/01/27 07:25:12;;;;;;;9.30;4.97;;;;;;;23.43;17.41;98455.94;5052470;28;20374;-80
2022/01/27 07:27:39;;;;;;;10.38;5.07;;;;;;;23.44;17.36;98468.72;5055825;28;20495;-80
2022/01/27 07:30:05;;;;;;;9.05;4.25;;;;;;;22.77;17.85;98458.28;5072918;28;20035;-80
2022/01/27 07:32:31;;;;;;;7.80;4.00;;;;;;;23.01;17.64;98468.41;5071712;28;20029;-80
2022/01/27 07:34:57;;;;;;;7.75;4.35;;;;;;;22.46;18.27;98456.56;5072829;28;20021;-80
2022/01/27 07:37:23;;;;;;;8.13;4.13;;;;;;;22.52;18.28;98457.72;5071695;28;20036;-80
2022/01/27 07:39:49;;;;;;;9.00;4.57;;;;;;;22.67;17.85;98453.59;5059889;28;20028;-80
2022/01/27 07:42:15;;;;;;;8.25;4.07;;;;;;;22.84;17.64;98457.41;5072779;28;20036;-80
2022/01/27 07:44:41;;;;;;;10.88;5.00;;;;;;;22.23;18.56;98448.78;5072985;28;20041;-80
2022/01/27 07:47:08;;;;;;;6.47;4.30;;;;;;;22.15;18.40;98446.47;5072769;28;20033;-80
2022/01/27 07:49:34;;;;;;;10.63;4.78;;;;;;;22.07;18.61;98456.13;5072678;28;20090;-80
2022/01/27 07:52:00;;;;;;;8.00;4.53;;;;;;;21.09;19.21;98461.84;5052808;28;20082;-79
2022/01/27 07:54:26;;;;;;;5.88;3.75;;;;;;;21.68;18.94;98457.16;5051664;28;20044;-79
2022/01/27 07:56:52;;;;;;;5.28;3.50;;;;;;;21.80;18.85;98437.09;5052741;28;20029;-80
2022/01/27 07:59:18;;;;;;;5.32;3.30;;;;;;;22.56;18.39;98433.28;5051942;28;20048;-80
2022/01/27 08:01:45;;;;;;;9.13;4.05;;;;;;;22.66;18.24;98430.41;5056299;28;20103;-80
2022/01/27 08:04:11;;;;;;;5.95;3.67;;;;;;;23.01;17.84;98434.03;5056626;28;20438;-80
2022/01/27 08:06:38;;;;;;;8.07;4.30;;;;;;;23.01;17.85;98436.84;5056152;28;20497;-80
2022/01/27 08:09:04;;;;;;;7.05;3.33;;;;;;;22.80;18.22;98439.88;5055795;28;20045;-80
2022/01/27 08:11:31;;;;;;;7.00;3.75;;;;;;;23.32;17.93;98439.22;5056785;28;20029;-80
2022/01/27 08:13:57;;;;;;;7.93;4.38;;;;;;;24.04;17.53;98418.16;5064986;28;20035;-80
2022/01/27 08:16:23;;;;;;;10.25;5.53;;;;;;;24.03;17.08;98424.19;5076309;28;20031;-80
2022/01/27 08:18:49;;;;;;;7.35;4.97;;;;;;;23.07;17.68;98424.75;5076004;28;20045;-80
2022/01/27 08:21:15;;;;;;;9.57;4.72;;;;;;;23.47;17.56;98419.44;5070760;28;20438;-80
2022/01/27 08:23:43;;;;;;;8.38;4.72;;;;;;;23.41;17.29;98423.94;5075509;28;20082;-80
2022/01/27 08:26:12;;;;;;;5.93;3.85;;;;;;;23.16;17.65;98418.63;5075712;28;20028;-80
2022/01/27 08:28:48;;;;;;;11.68;5.95;;;;;;;22.39;18.32;98415.47;5074870;28;20039;-80
2022/01/27 08:31:15;;;;;;;9.57;5.65;;;;;;;22.90;18.31;98419.34;5076063;28;20041;-80
2022/01/27 08:33:41;;;;;;;9.15;4.95;;;;;;;23.12;17.91;98412.28;5075972;28;20032;-80
2022/01/27 08:36:08;;;;;;;8.73;5.88;;;;;;;22.95;18.17;98400.09;5075640;28;20055;-80
2022/01/27 08:38:36;;;;;;;8.77;5.43;;;;;;;22.98;17.99;98399.25;5075665;28;20090;-80
2022/01/27 08:41:04;;;;;;;7.32;4.53;;;;;;;22.94;17.99;98383.72;5075430;28;20107;-80
2022/01/27 08:43:30;;;;;;;8.30;4.35;;;;;;;23.25;17.67;98377.69;5075865;28;20430;-80
2022/01/27 08:45:58;;;;;;;6.70;3.95;;;;;;;22.97;18.18;98389.25;5074672;28;20503;-80
2022/01/27 08:48:27;;;;;;;9.20;5.35;;;;;;;23.33;17.68;98375.56;5075198;28;20399;-80
2022/01/27 08:51:00;;;;;;;7.10;4.40;;;;;;;23.49;17.55;98370.16;5075127;28;20033;-80
2022/01/27 08:53:30;;;;;;;11.02;5.40;;;;;;;23.35;17.66;98378.78;5075650;28;20029;-80
2022/01/27 08:55:57;;;;;;;10.65;5.13;;;;;;;23.02;17.91;98383.19;5075606;28;20039;-80
2022/01/27 08:58:25;;;;;;;8.15;4.50;;;;;;;23.24;17.57;98384.47;5075311;28;20052;-80
2022/01/27 09:00:52;;;;;;;8.85;5.40;;;;;;;23.75;17.70;98386.19;5074164;28;20111;-80
2022/01/27 09:03:19;;;;;;;7.35;4.80;;;;;;;23.76;17.47;98387.75;5075106;28;20492;-81
2022/01/27 09:05:45;;;;;;;6.65;4.28;;;;;;;24.49;17.07;98384.13;5074908;28;20035;-81
2022/01/27 09:08:11;;;;;;;5.80;3.88;;;;;;;24.44;16.86;98387.41;5075276;28;20116;-81
2022/01/27 09:10:37;;;;;;;9.60;5.25;;;;;;;23.65;17.81;98384.34;5068901;28;20029;-81
2022/01/27 09:13:04;;;;;;;10.02;6.00;;;;;;;23.68;17.54;98385.50;5054468;28;20439;-80
2022/01/27 09:15:32;;;;;;;9.65;5.82;;;;;;;23.45;17.75;98382.66;5065544;28;20059;-81
2022/01/27 09:17:59;;;;;;;11.65;6.57;;;;;;;23.49;17.63;98381.38;5073985;28;20105;-80
2022/01/27 09:20:26;;;;;;;8.63;5.40;;;;;;;23.74;17.89;98381.78;5074291;28;20086;-81
2022/01/27 09:22:55;;;;;;;6.75;4.35;;;;;;;23.72;17.54;98389.03;5067670;28;20108;-81
2022/01/27 09:25:28;;;;;;;7.68;4.95;;;;;;;23.96;17.55;98383.03;5054912;28;20028;-81
2022/01/27 09:27:56;;;;;;;6.43;4.20;;;;;;;24.13;17.46;98381.19;5054588;28;20125;-81
2022/01/27 09:30:23;;;;;;;8.98;5.90;;;;;;;24.50;17.21;98372.47;5054555;28;20025;-81
2022/01/27 09:32:50;;;;;;;7.40;4.88;;;;;;;25.18;16.73;98367.06;5054915;28;20037;-81
2022/01/27 09:35:17;;;;;;;10.13;6.40;;;;;;;25.23;16.41;98365.78;5055141;28;20064;-81
2022/01/27 09:37:43;;;;;;;8.80;5.32;;;;;;;24.79;16.82;98355.09;5054439;28;20101;-81
2022/01/27 09:40:12;;;;;;;7.50;4.82;;;;;;;25.21;16.70;98354.97;5058172;28;20070;-81
2022/01/27 09:42:41;;;;;;;8.80;4.60;;;;;;;25.56;16.46;98353.41;5073246;28;20064;-81
2022/01/27 09:45:09;;;;;;;5.38;3.85;;;;;;;25.85;16.18;98347.88;5074417;28;20389;-80
2022/01/27 09:47:39;;;;;;;8.38;4.57;;;;;;;25.93;15.84;98340.84;5074425;28;20034;-81
2022/01/27 09:52:42;;;;;;;7.90;4.75;;;;;;;25.08;16.08;98340.03;5073344;28;20108;-81
2022/01/27 09:55:09;;;;;;;8.45;4.75;;;;;;;24.93;16.68;98347.16;5074711;28;20029;-81
2022/01/27 09:57:35;;;;;;;8.18;4.95;;;;;;;24.23;16.99;98342.91;5074697;28;20036;-81
2022/01/27 10:00:03;;;;;;;9.27;4.90;;;;;;;23.26;17.88;98340.06;5074060;28;20029;-81
2022/01/27 10:02:30;;;;;;;11.05;6.93;;;;;;;22.11;18.95;98347.81;5073927;28;20033;-81
2022/01/27 10:04:58;;;;;;;11.00;6.40;;;;;;;20.80;21.48;98334.72;5073622;28;20043;-81
2022/01/27 10:07:45;;;;;;;14.20;7.47;;;;;;;20.00;21.98;98330.97;5073918;28;20025;-81
2022/01/27 10:10:15;;;;;;;13.43;7.88;;;;;;;20.62;21.52;98317.28;5054461;28;20485;-81
2022/01/27 10:12:47;;;;;;;16.65;9.27;;;;;;;21.25;20.41;98318.97;5054172;28;20091;-81
2022/01/27 10:15:20;;;;;;;18.20;10.30;;;;;;;21.64;20.03;98315.84;5053840;28;20086;-81
2022/01/27 10:18:12;;;;;;;14.45;8.60;;;;;;;22.32;19.46;98316.84;5053448;28;20093;-81
2022/01/27 10:20:59;;;;;;;14.82;8.10;;;;;;;22.21;19.78;98302.19;5053391;28;20524;-81
2022/01/27 10:23:33;;;;;;;17.45;9.38;;;;;;;23.31;18.67;98299.56;5053365;28;20029;-81
2022/01/27 10:26:11;;;;;;;18.60;10.68;;;;;;;23.76;17.72;98289.63;5054306;28;20078;-81
2022/01/27 10:28:46;;;;;;;15.90;8.90;;;;;;;23.87;17.62;98281.84;5053490;28;20485;-81
2022/01/27 10:31:30;;;;;;;10.45;6.15;;;;;;;22.95;17.83;98279.69;5053879;28;20029;-81
2022/01/27 10:34:07;;;;;;;8.75;5.05;;;;;;;22.46;17.68;98277.50;5053356;28;20060;-80
2022/01/27 10:36:36;;;;;;;5.40;4.30;;;;;;;22.84;18.11;98264.25;5053320;28;20480;-80
2022/01/27 10:39:15;;;;;;;7.05;4.30;;;;;;;22.26;18.39;98259.78;5063044;28;20028;-80
2022/01/27 10:42:08;;;;;;;6.63;3.47;;;;;;;22.95;17.87;98243.28;5070421;28;20037;-81
2022/01/27 10:44:48;;;;;;;11.63;6.15;;;;;;;22.86;17.55;98229.00;5058304;28;20040;-81
2022/01/27 10:47:22;;;;;;;8.40;4.43;;;;;;;22.85;17.78;98232.25;5053341;28;20116;-81
2022/01/27 10:50:00;;;;;;;12.60;5.32;;;;;;;23.30;17.18;98228.72;5053234;28;20116;-81
2022/01/27 10:52:46;;;;;;;7.50;4.43;;;;;;;23.75;17.08;98208.75;5053302;28;20370;-80
2022/01/27 10:55:17;;;;;;;8.70;4.68;;;;;;;23.15;17.31;98204.94;5053338;28;20040;-80
2022/01/27 10:57:49;;;;;;;;;;;;;;;22.50;17.29;98225.06;5054223;28;20036;-80
2022/01/27 11:00:21;;;;;;;7.80;4.60;;;;;;;22.28;18.02;98227.38;5053700;28;19912;-80
2022/01/27 11:02:53;;;;;;;7.20;4.20;;;;;;;21.18;19.42;98196.16;5056998;28;20033;-81
2022/01/27 11:05:24;;;;;;;6.75;3.67;;;;;;;21.71;18.36;98192.84;5053119;28;20025;-80
2022/01/27 11:07:50;;;;;;;;;;;;;;;22.48;17.61;98194.72;5053761;28;20037;-80
2022/01/27 11:10:18;;;;;;;6.80;3.30;;;;;;;22.79;17.58;98184.31;5085766;28;19917;-80
2022/01/27 11:12:45;;;;;;;8.05;4.20;;;;;;;22.33;17.38;98175.75;5053023;28;20112;-81
2022/01/27 11:15:16;;;;;;;5.18;3.20;;;;;;;21.35;18.72;98190.41;5053054;28;20032;-81
2022/01/27 11:17:45;;;;;;;6.55;3.72;;;;;;;19.69;20.54;98184.16;5060859;28;20028;-81
2022/01/27 11:20:35;;;;;;;4.95;3.53;;;;;;;21.00;19.58;98175.94;5066759;28;20480;-81
2022/01/27 11:23:34;;;;;;;5.93;3.60;;;;;;;19.96;20.68;98186.06;5052811;28;20488;-81
2022/01/27 11:25:58;;;;;;;7.88;4.53;;;;;;;20.41;20.54;98172.34;5052783;28;20041;-81
2022/01/27 11:28:25;;;;;;;8.30;4.53;;;;;;;20.90;19.42;98172.03;5052796;28;20036;-81
2022/01/27 11:31:07;;;;;;;6.57;3.92;;;;;;;20.70;19.69;98162.59;5053062;28;20377;-81
2022/01/27 11:33:35;;;;;;;7.75;4.22;;;;;;;20.66;19.67;98170.19;5053209;28;20361;-81
2022/01/27 11:36:19;;;;;;;6.88;3.60;;;;;;;19.68;20.66;98183.38;5056752;28;20040;-81
2022/01/27 11:38:46;;;;;;;7.45;4.10;;;;;;;18.88;21.47;98181.44;5055523;28;20029;-80
2022/01/27 11:41:37;;;;;;;8.73;5.28;;;;;;;19.35;21.16;98177.44;5056876;28;20021;-80
2022/01/27 11:44:22;;;;;;;;;;;;;;;21.03;19.14;98170.31;5057481;28;20029;-80
2022/01/27 11:47:21;;;;;;;7.30;3.58;;;;;;;22.17;18.01;98150.41;5056753;28;20008;-80
2022/01/27 11:50:01;;;;;;;11.77;5.05;;;;;;;21.83;18.71;98147.59;5033609;28;20052;-80
2022/01/27 11:52:33;;;;;;;9.25;4.80;;;;;;;21.97;18.62;98141.88;5057158;28;20029;-80
2022/01/27 11:55:24;;;;;;;8.65;3.92;;;;;;;20.75;19.17;98155.81;5056804;28;20021;-80
2022/01/27 11:57:58;;;;;;;10.25;5.30;;;;;;;20.66;19.87;98151.47;5059309;28;20033;-80
2022/01/27 12:00:28;;;;;;;7.57;4.45;;;;;;;20.73;19.38;98152.59;5056137;28;20570;-80
2022/01/27 12:03:02;;;;;;;7.83;4.97;;;;;;;20.44;20.19;98152.03;5056330;28;20393;-80
2022/01/27 12:05:30;;;;;;;10.23;5.90;;;;;;;19.90;20.75;98156.25;5056331;28;20029;-80
2022/01/27 12:08:15;;;;;;;13.30;7.20;;;;;;;18.77;22.13;98166.72;5055367;28;20063;-80
2022/01/27 12:10:45;;;;;;;10.00;4.93;;;;;;;19.40;21.97;98146.44;5056503;28;20393;-80
2022/01/27 12:13:50;;;;;;;12.10;6.32;;;;;;;19.87;21.03;98141.13;5056390;28;20032;-80
2022/01/27 12:19:03;;;;;;;11.38;5.90;;;;;;;18.78;22.32;98123.81;5061549;28;20025;-80
2022/01/27 12:21:44;;;;;;;12.25;6.05;;;;;;;19.22;21.75;98118.59;5075909;28;20047;-80
2022/01/27 12:24:16;;;;;;;15.43;7.97;;;;;;;20.94;20.18;98091.84;5069051;28;20032;-80